createdAt,value
2019-05-11T00:01:12.949Z,86.20
2019-05-11T00:03:41.821Z,86.50
2019-05-11T00:06:10.685Z,86.30
2019-05-11T00:08:39.465Z,86.80
2019-05-11T00:11:08.273Z,87.30
2019-05-11T00:13:37.141Z,87.40
2019-05-11T00:16:05.888Z,87.30
2019-05-11T00:18:34.678Z,87.80
2019-05-11T00:21:03.497Z,87.90
2019-05-11T00:23:32.317Z,88.00
2019-05-11T00:26:01.095Z,88.50
2019-05-11T00:28:29.963Z,88.90
2019-05-11T00:30:58.789Z,89.40
2019-05-11T00:33:27.629Z,89.60
2019-05-11T00:35:56.467Z,89.80
2019-05-11T00:38:25.296Z,90.20
2019-05-11T00:40:54.133Z,90.20
2019-05-11T00:43:22.945Z,90.30
2019-05-11T00:45:51.792Z,90.40
2019-05-11T00:48:20.641Z,90.40
2019-05-11T00:50:49.483Z,90.50
2019-05-11T00:53:18.320Z,90.60
2019-05-11T00:55:47.175Z,90.70
2019-05-11T00:58:16.024Z,90.90
2019-05-11T01:00:44.822Z,90.90
2019-05-11T01:03:13.660Z,91.30
2019-05-11T01:05:42.811Z,90.90
2019-05-11T01:08:11.632Z,90.90
2019-05-11T01:10:42.507Z,90.80
2019-05-11T01:13:10.985Z,90.90
2019-05-11T01:15:39.753Z,90.80
2019-05-11T01:18:08.587Z,90.70
2019-05-11T01:20:37.423Z,90.70
2019-05-11T01:23:06.269Z,90.70
2019-05-11T01:25:35.099Z,90.60
2019-05-11T01:28:04.031Z,90.60
2019-05-11T01:30:32.871Z,90.60
2019-05-11T01:33:01.709Z,90.50
2019-05-11T01:35:30.529Z,90.30
2019-05-11T01:37:59.418Z,90.40
2019-05-11T01:40:28.293Z,90.50
2019-05-11T01:42:57.095Z,90.60
2019-05-11T01:45:25.864Z,90.50
2019-05-11T01:47:54.636Z,90.50
2019-05-11T01:50:23.492Z,90.40
2019-05-11T01:52:52.319Z,90.50
2019-05-11T01:55:21.172Z,90.60
2019-05-11T01:57:50.025Z,90.60
2019-05-11T02:00:18.987Z,90.70
2019-05-11T02:02:53.710Z,90.80
2019-05-11T02:05:29.057Z,91.10
2019-05-11T02:07:59.303Z,91.00
2019-05-11T02:10:28.404Z,91.00
2019-05-11T02:12:57.276Z,91.10
2019-05-11T02:15:26.114Z,91.20
2019-05-11T02:17:54.962Z,91.30
2019-05-11T02:20:23.808Z,91.50
2019-05-11T02:22:52.588Z,91.60
2019-05-11T02:25:21.457Z,92.20
2019-05-11T02:27:50.290Z,91.80
2019-05-11T02:30:19.424Z,92.10
2019-05-11T02:32:48.296Z,92.70
2019-05-11T02:35:17.125Z,92.80
2019-05-11T02:37:45.964Z,92.60
2019-05-11T02:40:15.422Z,93.10
2019-05-11T02:42:44.283Z,92.80
2019-05-11T02:45:13.087Z,92.90
2019-05-11T02:47:42.104Z,93.00
2019-05-11T02:50:11.552Z,92.90
2019-05-11T02:52:40.513Z,93.00
2019-05-11T02:55:09.508Z,92.90
2019-05-11T02:57:38.345Z,92.90
2019-05-11T03:00:10.814Z,92.80
2019-05-11T03:02:39.565Z,92.90
2019-05-11T03:05:08.398Z,92.70
2019-05-11T03:07:37.283Z,92.60
2019-05-11T03:10:06.309Z,92.90
2019-05-11T03:12:35.077Z,92.40
2019-05-11T03:15:05.515Z,92.20
2019-05-11T03:17:34.408Z,92.20
2019-05-11T03:20:03.386Z,92.10
2019-05-11T03:22:32.236Z,91.90
2019-05-11T03:25:01.090Z,91.80
2019-05-11T03:27:29.918Z,91.70
2019-05-11T03:30:01.108Z,91.60
2019-05-11T03:32:29.209Z,91.40
2019-05-11T03:34:58.041Z,91.20
2019-05-11T03:37:26.892Z,91.00
2019-05-11T03:39:55.733Z,90.80
2019-05-11T03:42:24.586Z,90.60
2019-05-11T03:44:53.503Z,90.50
2019-05-11T03:47:22.288Z,90.20
2019-05-11T03:49:51.117Z,90.50
2019-05-11T03:52:19.906Z,90.30
2019-05-11T03:54:48.737Z,90.40
2019-05-11T03:57:17.589Z,90.90
2019-05-11T03:59:46.555Z,90.60
2019-05-11T04:02:16.597Z,90.50
2019-05-11T04:04:45.449Z,90.40
2019-05-11T04:07:14.606Z,90.50
2019-05-11T04:09:43.471Z,90.40
2019-05-11T04:12:12.314Z,90.60
2019-05-11T04:14:41.104Z,90.60
2019-05-11T04:17:09.869Z,90.50
2019-05-11T04:19:38.705Z,90.50
2019-05-11T04:22:07.533Z,90.30
2019-05-11T04:24:36.385Z,90.40
2019-05-11T04:27:05.142Z,90.40
2019-05-11T04:29:33.930Z,90.20
2019-05-11T04:32:02.714Z,90.20
2019-05-11T04:34:31.529Z,90.00
2019-05-11T04:37:00.293Z,90.00
2019-05-11T04:39:29.166Z,89.80
2019-05-11T04:41:57.966Z,89.20
2019-05-11T04:44:27.070Z,89.60
2019-05-11T04:46:56.042Z,89.30
2019-05-11T04:49:24.830Z,88.90
2019-05-11T04:51:53.675Z,88.90
2019-05-11T04:54:22.577Z,88.70
2019-05-11T04:56:51.404Z,88.50
2019-05-11T04:59:20.197Z,88.90
2019-05-11T05:01:49.052Z,88.70
2019-05-11T05:04:17.919Z,87.90
2019-05-11T05:06:58.964Z,87.40
2019-05-11T05:09:17.240Z,86.80
2019-05-11T05:11:46.075Z,86.20
2019-05-11T05:14:14.928Z,85.00
2019-05-11T05:16:43.769Z,84.50
2019-05-11T05:19:12.611Z,83.40
2019-05-11T05:21:41.485Z,83.00
2019-05-11T05:24:10.318Z,82.40
2019-05-11T05:26:39.228Z,81.90
2019-05-11T05:29:08.086Z,82.30
2019-05-11T05:31:36.925Z,82.40
2019-05-11T05:34:05.718Z,82.80
2019-05-11T05:36:34.541Z,83.40
2019-05-11T05:39:08.613Z,84.20
2019-05-11T05:41:35.442Z,84.20
2019-05-11T05:44:04.316Z,84.20
2019-05-11T05:46:33.268Z,84.20
2019-05-11T05:49:02.084Z,83.70
2019-05-11T05:51:31.049Z,83.00
2019-05-11T05:53:59.911Z,81.30
2019-05-11T05:56:28.761Z,79.70
2019-05-11T05:58:57.711Z,78.40
2019-05-11T06:01:26.553Z,77.40
2019-05-11T06:03:55.456Z,76.80
2019-05-11T06:06:24.374Z,75.40
2019-05-11T06:08:53.204Z,76.00
2019-05-11T06:11:22.014Z,75.40
2019-05-11T06:13:50.760Z,76.10
2019-05-11T06:16:19.519Z,76.40
2019-05-11T06:18:51.363Z,75.00
2019-05-11T06:21:20.249Z,75.10
2019-05-11T06:23:50.584Z,75.80
2019-05-11T06:26:20.156Z,74.60
2019-05-11T06:28:49.391Z,72.20
2019-05-11T06:31:18.332Z,71.70
2019-05-11T06:33:47.598Z,70.70
2019-05-11T06:36:17.992Z,69.20
2019-05-11T06:38:46.856Z,68.50
2019-05-11T06:41:15.772Z,68.50
2019-05-11T06:43:59.552Z,72.50
2019-05-11T06:46:15.617Z,70.30
2019-05-11T06:48:44.649Z,69.50
2019-05-11T06:51:13.414Z,69.10
2019-05-11T06:53:42.443Z,65.90
2019-05-11T06:56:11.294Z,66.80
2019-05-11T06:58:40.617Z,65.00
2019-05-11T07:01:09.370Z,65.60
2019-05-11T07:03:38.341Z,64.30
2019-05-11T07:06:07.436Z,64.20
2019-05-11T07:08:36.271Z,63.50
2019-05-11T07:11:05.168Z,64.10
2019-05-11T07:13:34.109Z,60.80
2019-05-11T07:16:02.945Z,60.90
2019-05-11T07:18:32.017Z,59.40
2019-05-11T07:21:00.787Z,59.50
2019-05-11T07:23:29.813Z,58.10
2019-05-11T07:26:00.295Z,58.50
2019-05-11T07:28:29.325Z,58.60
2019-05-11T07:30:58.147Z,58.40
2019-05-11T07:33:28.691Z,58.80
2019-05-11T07:35:58.326Z,58.50
2019-05-11T07:38:27.948Z,58.60
2019-05-11T07:40:58.201Z,57.50
2019-05-11T07:43:28.780Z,56.90
2019-05-11T07:45:58.423Z,57.10
2019-05-11T07:48:27.988Z,57.10
2019-05-11T07:50:58.402Z,57.00
2019-05-11T07:53:28.055Z,57.20
2019-05-11T07:55:57.727Z,56.80
2019-05-11T07:58:28.535Z,56.50
2019-05-11T08:00:58.274Z,56.40
2019-05-11T08:03:28.399Z,57.40
2019-05-11T08:06:02.478Z,57.30
2019-05-11T08:08:29.399Z,57.00
2019-05-11T08:10:58.767Z,56.40
2019-05-11T08:13:28.731Z,57.50
2019-05-11T08:15:57.929Z,56.00
2019-05-11T08:18:28.160Z,57.20
2019-05-11T08:20:58.322Z,55.20
2019-05-11T08:23:28.566Z,55.50
2019-05-11T08:25:58.219Z,54.10
2019-05-11T08:28:28.789Z,53.80
2019-05-11T08:30:58.018Z,55.00
2019-05-11T08:33:28.394Z,54.70
2019-05-11T08:35:58.255Z,55.60
2019-05-11T08:38:28.555Z,54.60
2019-05-11T08:40:59.178Z,48.30
2019-05-11T08:43:28.604Z,50.90
2019-05-11T08:45:58.010Z,49.00
2019-05-11T08:48:28.339Z,46.70
2019-05-11T08:50:58.194Z,47.00
2019-05-11T08:53:33.780Z,46.50
2019-05-11T08:56:02.841Z,45.90
2019-05-11T08:58:32.373Z,43.40
2019-05-11T09:01:01.550Z,43.30
2019-05-11T09:03:31.269Z,43.70
2019-05-11T09:06:00.084Z,42.70
2019-05-11T09:08:28.931Z,43.90
2019-05-11T09:10:58.318Z,44.10
2019-05-11T09:13:28.065Z,44.20
2019-05-11T09:15:58.867Z,44.30
2019-05-11T09:18:32.956Z,43.90
2019-05-11T09:21:04.311Z,44.80
2019-05-11T09:23:37.344Z,45.40
2019-05-11T09:26:03.726Z,47.90
2019-05-11T09:28:32.561Z,47.60
2019-05-11T09:31:01.537Z,45.70
2019-05-11T09:33:30.340Z,45.50
2019-05-11T09:35:59.354Z,44.40
2019-05-11T09:38:28.342Z,43.90
2019-05-11T09:40:58.700Z,42.80
2019-05-11T09:43:28.356Z,41.90
2019-05-11T09:45:58.247Z,41.20
2019-05-11T09:48:28.437Z,40.60
2019-05-11T09:50:58.768Z,39.50
2019-05-11T09:53:28.403Z,38.40
2019-05-11T09:55:58.697Z,38.40
2019-05-11T09:58:30.269Z,40.10
2019-05-11T10:00:58.969Z,42.20
2019-05-11T10:03:28.206Z,44.10
2019-05-11T10:05:58.003Z,47.40
2019-05-11T10:08:28.674Z,52.80
2019-05-11T10:10:58.143Z,56.20
2019-05-11T10:13:27.858Z,58.10
2019-05-11T10:16:04.374Z,57.80
2019-05-11T10:18:28.250Z,58.20
2019-05-11T10:20:58.609Z,56.40
2019-05-11T10:23:27.994Z,57.00
2019-05-11T10:25:58.717Z,57.20
2019-05-11T10:28:28.448Z,55.50
2019-05-11T10:30:58.026Z,56.50
2019-05-11T10:33:28.137Z,56.00
2019-05-11T10:35:58.762Z,56.00
2019-05-11T10:38:28.538Z,55.00
2019-05-11T10:40:58.169Z,55.30
2019-05-11T10:43:28.853Z,56.00
2019-05-11T10:45:58.787Z,55.60
2019-05-11T10:48:28.266Z,56.10
2019-05-11T10:50:57.698Z,56.40
2019-05-11T10:53:27.812Z,56.40
2019-05-11T10:55:58.174Z,57.50
2019-05-11T10:58:28.503Z,58.50
2019-05-11T11:00:58.241Z,57.60
2019-05-11T11:03:28.413Z,57.60
2019-05-11T11:05:58.083Z,57.90
2019-05-11T11:08:27.832Z,57.00
2019-05-11T11:10:58.566Z,58.30
2019-05-11T11:13:28.118Z,57.70
2019-05-11T11:15:58.150Z,57.70
2019-05-11T11:18:28.757Z,58.20
2019-05-11T11:20:58.151Z,59.20
2019-05-11T11:23:28.493Z,59.30
2019-05-11T11:25:58.569Z,58.90
2019-05-11T11:28:28.036Z,60.40
2019-05-11T11:30:58.438Z,61.20
2019-05-11T11:33:27.778Z,61.90
2019-05-11T11:35:57.948Z,60.50
2019-05-11T11:38:28.522Z,60.20
2019-05-11T11:40:59.161Z,60.20
2019-05-11T11:43:28.723Z,61.10
2019-05-11T11:45:58.060Z,61.50
2019-05-11T11:48:28.047Z,64.90
2019-05-11T11:50:58.521Z,68.90
2019-05-11T11:53:27.942Z,71.60
2019-05-11T11:55:58.738Z,71.30
2019-05-11T11:58:27.780Z,72.10
2019-05-11T12:00:58.702Z,73.00
2019-05-11T12:03:27.679Z,72.10
2019-05-11T12:05:58.185Z,71.60
2019-05-11T12:08:28.226Z,71.60
2019-05-11T12:10:58.899Z,74.20
2019-05-11T12:13:29.688Z,75.70
2019-05-11T12:15:58.563Z,75.60
2019-05-11T12:18:28.648Z,77.70
2019-05-11T12:20:58.589Z,78.20
2019-05-11T12:23:28.510Z,78.70
2019-05-11T12:25:58.090Z,80.10
2019-05-11T12:28:27.638Z,80.40
2019-05-11T12:30:58.569Z,80.40
2019-05-11T12:33:27.958Z,80.20
2019-05-11T12:35:58.700Z,79.70
2019-05-11T12:38:27.723Z,78.90
2019-05-11T12:40:57.900Z,79.00
2019-05-11T12:43:27.845Z,78.20
2019-05-11T12:45:58.552Z,77.70
2019-05-11T12:48:28.458Z,76.20
2019-05-11T12:50:58.821Z,76.20
2019-05-11T12:53:28.011Z,75.10
2019-05-11T12:55:58.959Z,70.90
2019-05-11T12:58:28.113Z,70.40
2019-05-11T13:00:58.503Z,69.20
2019-05-11T13:03:27.877Z,67.20
2019-05-11T13:05:58.531Z,66.80
2019-05-11T13:08:27.847Z,65.10
2019-05-11T13:10:58.398Z,65.40
2019-05-11T13:13:28.576Z,65.00
2019-05-11T13:15:58.501Z,65.60
2019-05-11T13:18:27.977Z,67.90
2019-05-11T13:20:58.752Z,67.30
2019-05-11T13:23:27.909Z,65.00
2019-05-11T13:25:58.560Z,63.50
2019-05-11T13:28:28.453Z,63.10
2019-05-11T13:30:58.017Z,64.10
2019-05-11T13:33:28.003Z,64.40
2019-05-11T13:35:57.940Z,65.50
2019-05-11T13:38:28.443Z,67.20
2019-05-11T13:40:59.023Z,65.20
2019-05-11T13:43:28.136Z,66.60
2019-05-11T13:45:58.397Z,68.50
2019-05-11T13:48:28.168Z,67.30
2019-05-11T13:50:58.255Z,67.40
2019-05-11T13:53:27.665Z,67.80
2019-05-11T13:55:58.703Z,69.90
2019-05-11T13:58:27.801Z,71.60
2019-05-11T14:00:58.481Z,72.80
2019-05-11T14:03:28.599Z,73.40
2019-05-11T14:05:58.223Z,73.50
2019-05-11T14:08:27.930Z,73.90
2019-05-11T14:10:58.057Z,74.80
2019-05-11T14:13:28.628Z,76.30
2019-05-11T14:15:58.720Z,76.90
2019-05-11T14:18:28.249Z,76.60
2019-05-11T14:20:58.642Z,77.30
2019-05-11T14:23:30.780Z,78.00
2019-05-11T14:25:58.007Z,78.50
2019-05-11T14:28:28.676Z,78.30
2019-05-11T14:30:57.921Z,79.10
2019-05-11T14:33:28.228Z,78.80
2019-05-11T14:35:57.850Z,78.60
2019-05-11T14:38:28.849Z,78.30
2019-05-11T14:40:58.582Z,78.70
2019-05-11T14:43:27.799Z,79.20
2019-05-11T14:45:57.816Z,79.70
2019-05-11T14:48:29.907Z,79.60
2019-05-11T14:50:59.298Z,79.50
2019-05-11T14:53:28.402Z,79.10
2019-05-11T14:55:58.496Z,79.30
2019-05-11T14:58:27.992Z,79.10
2019-05-11T15:00:58.286Z,79.90
2019-05-11T15:03:28.694Z,78.90
2019-05-11T15:05:58.236Z,79.30
2019-05-11T15:08:28.666Z,79.20
2019-05-11T15:10:57.773Z,78.80
2019-05-11T15:13:28.630Z,80.70
2019-05-11T15:15:58.640Z,80.00
2019-05-11T15:18:36.054Z,81.60
2019-05-11T15:20:58.366Z,82.20
2019-05-11T15:23:28.441Z,82.70
2019-05-11T15:25:58.689Z,83.20
2019-05-11T15:28:28.537Z,83.20
2019-05-11T15:30:58.749Z,82.80
2019-05-11T15:33:31.154Z,82.80
2019-05-11T15:35:59.992Z,83.20
2019-05-11T15:38:28.841Z,83.70
2019-05-11T15:40:58.008Z,84.60
2019-05-11T15:43:28.286Z,85.00
2019-05-11T15:45:57.886Z,85.30
2019-05-11T15:48:26.900Z,85.30
2019-05-11T15:50:57.755Z,85.50
2019-05-11T15:53:26.216Z,85.60
2019-05-11T15:55:55.043Z,86.10
2019-05-11T15:58:23.888Z,85.50
2019-05-11T16:00:52.713Z,85.70
2019-05-11T16:03:21.507Z,85.40
2019-05-11T16:05:53.024Z,86.10
2019-05-11T16:08:21.853Z,86.90
2019-05-11T16:10:51.059Z,86.80
2019-05-11T16:13:20.278Z,86.80
2019-05-11T16:15:49.107Z,87.30
2019-05-11T16:18:18.905Z,87.50
2019-05-11T16:20:50.215Z,87.10
2019-05-11T16:23:20.264Z,87.10
2019-05-11T16:25:49.665Z,86.90
2019-05-11T16:28:19.263Z,86.40
2019-05-11T16:30:48.335Z,86.20
2019-05-11T16:33:18.044Z,86.30
2019-05-11T16:35:49.036Z,87.30
2019-05-11T16:38:18.821Z,88.20
2019-05-11T16:40:48.088Z,88.30
2019-05-11T16:43:18.984Z,88.00
2019-05-11T16:45:48.859Z,89.10
2019-05-11T16:48:18.461Z,90.00
2019-05-11T16:50:47.640Z,90.20
2019-05-11T16:53:18.113Z,90.20
2019-05-11T16:55:48.639Z,90.30
2019-05-11T16:58:19.943Z,90.40
2019-05-11T17:00:49.024Z,90.50
2019-05-11T17:03:18.203Z,90.60
2019-05-11T17:05:48.437Z,90.70
2019-05-11T17:08:18.677Z,91.00
2019-05-11T17:10:59.147Z,91.40
2019-05-11T17:13:28.301Z,91.30
2019-05-11T17:15:58.295Z,91.70
2019-05-11T17:18:28.401Z,91.70
2019-05-11T17:20:59.441Z,91.80
2019-05-11T17:23:30.926Z,91.70
2019-05-11T17:25:58.861Z,91.70
2019-05-11T17:28:27.641Z,91.80
2019-05-11T17:30:58.655Z,91.70
2019-05-11T17:33:38.251Z,91.70
2019-05-11T17:36:08.425Z,91.90
2019-05-11T17:38:38.968Z,91.90
2019-05-11T17:41:08.529Z,91.60
2019-05-11T17:43:38.604Z,92.30
2019-05-11T17:46:08.189Z,92.00
2019-05-11T17:48:38.811Z,92.00
2019-05-11T17:51:20.651Z,92.20
2019-05-11T17:53:39.271Z,92.10
2019-05-11T17:56:08.033Z,92.00
2019-05-11T17:58:37.891Z,91.80
2019-05-11T18:01:09.187Z,91.80
2019-05-11T18:03:38.498Z,91.60
2019-05-11T18:06:08.550Z,91.70
2019-05-11T18:08:37.515Z,91.60
2019-05-11T18:11:08.406Z,91.70
2019-05-11T18:13:38.968Z,91.80
2019-05-11T18:16:08.516Z,91.80
2019-05-11T18:18:37.886Z,91.70
2019-05-11T18:21:08.473Z,91.40
2019-05-11T18:23:38.752Z,91.20
2019-05-11T18:26:08.851Z,91.10
2019-05-11T18:28:37.969Z,91.00
2019-05-11T18:31:06.844Z,90.80
2019-05-11T18:33:38.039Z,91.40
2019-05-11T18:36:15.433Z,91.20
2019-05-11T18:38:44.268Z,90.90
2019-05-11T18:41:14.609Z,91.00
2019-05-11T18:43:43.562Z,90.60
2019-05-11T18:46:12.747Z,90.50
2019-05-11T18:48:41.687Z,90.30
2019-05-11T18:51:10.499Z,90.20
2019-05-11T18:53:39.303Z,90.20
2019-05-11T18:56:09.326Z,90.40
2019-05-11T18:58:39.661Z,90.70
2019-05-11T19:01:08.488Z,90.30
2019-05-11T19:03:38.501Z,90.30
2019-05-11T19:06:09.462Z,90.30
2019-05-11T19:08:38.503Z,90.20
2019-05-11T19:11:09.337Z,90.20
2019-05-11T19:13:38.732Z,90.20
2019-05-11T19:16:08.641Z,90.20
2019-05-11T19:18:38.763Z,90.20
2019-05-11T19:21:09.199Z,90.30
2019-05-11T19:23:38.262Z,90.70
2019-05-11T19:26:08.351Z,90.30
2019-05-11T19:28:38.462Z,90.50
2019-05-11T19:31:08.262Z,91.10
2019-05-11T19:33:38.297Z,90.80
2019-05-11T19:36:08.425Z,91.70
2019-05-11T19:38:38.803Z,91.30
2019-05-11T19:41:08.067Z,92.00
2019-05-11T19:43:38.156Z,92.10
2019-05-11T19:46:09.024Z,91.70
2019-05-11T19:48:38.418Z,91.70
2019-05-11T19:51:10.908Z,91.90
2019-05-11T19:53:38.625Z,92.10
2019-05-11T19:56:10.331Z,92.80
2019-05-11T19:58:39.171Z,92.50
2019-05-11T20:01:08.708Z,92.70
2019-05-11T20:03:37.961Z,92.80
2019-05-11T20:06:08.730Z,93.40
2019-05-11T20:08:37.275Z,93.30
2019-05-11T20:11:08.072Z,93.30
2019-05-11T20:13:38.638Z,93.30
2019-05-11T20:16:08.276Z,93.50
2019-05-11T20:18:39.104Z,93.50
2019-05-11T20:21:18.544Z,93.90
2019-05-11T20:23:38.340Z,93.80
2019-05-11T20:26:08.849Z,94.00
2019-05-11T20:28:40.854Z,94.20
2019-05-11T20:31:11.427Z,93.90
2019-05-11T20:33:40.367Z,93.90
2019-05-11T20:36:09.206Z,94.00
2019-05-11T20:38:38.476Z,94.20
2019-05-11T20:41:10.607Z,94.30
2019-05-11T20:43:42.667Z,94.60
2019-05-11T20:46:14.447Z,94.70
2019-05-11T20:48:43.313Z,94.70
2019-05-11T20:51:12.994Z,94.90
2019-05-11T20:53:42.134Z,95.10
2019-05-11T20:56:11.331Z,95.00
2019-05-11T20:58:58.765Z,94.90
2019-05-11T21:01:28.612Z,95.10
2019-05-11T21:03:58.408Z,95.30
2019-05-11T21:06:29.529Z,95.40
2019-05-11T21:08:58.104Z,95.40
2019-05-11T21:11:26.947Z,95.60
2019-05-11T21:13:55.865Z,95.70
2019-05-11T21:16:24.650Z,95.70
2019-05-11T21:18:53.514Z,95.90
2019-05-11T21:21:22.245Z,95.80
2019-05-11T21:23:51.097Z,95.80
2019-05-11T21:26:19.910Z,95.30
2019-05-11T21:28:48.812Z,95.60
2019-05-11T21:31:18.623Z,95.40
2019-05-11T21:33:47.567Z,95.20
2019-05-11T21:36:18.074Z,95.10
2019-05-11T21:38:48.298Z,95.10
2019-05-11T21:41:17.329Z,95.10
2019-05-11T21:43:48.198Z,95.40
2019-05-11T21:46:18.074Z,95.60
2019-05-11T21:48:47.842Z,95.80
2019-05-11T21:51:18.100Z,96.10
2019-05-11T21:53:48.688Z,95.90
2019-05-11T21:56:18.816Z,95.90
2019-05-11T21:58:47.933Z,96.00
2019-05-11T22:01:20.048Z,96.20
2019-05-11T22:03:47.900Z,96.20
2019-05-11T22:06:16.949Z,96.10
2019-05-11T22:08:48.230Z,96.00
2019-05-11T22:11:18.013Z,96.20
2019-05-11T22:13:48.458Z,96.40
2019-05-11T22:16:17.519Z,96.50
2019-05-11T22:18:48.411Z,96.50
2019-05-11T22:21:18.747Z,96.50
2019-05-11T22:23:50.633Z,95.70
2019-05-11T22:26:18.150Z,96.00
2019-05-11T22:28:48.139Z,95.90
2019-05-11T22:31:18.299Z,96.00
2019-05-11T22:33:48.038Z,95.90
2019-05-11T22:36:16.968Z,95.90
2019-05-11T22:38:48.130Z,96.00
2019-05-11T22:41:18.085Z,96.00
2019-05-11T22:43:48.590Z,96.30
2019-05-11T22:46:17.816Z,96.70
2019-05-11T22:48:48.415Z,96.90
2019-05-11T22:51:18.321Z,97.30
2019-05-11T22:53:50.317Z,97.60
2019-05-11T22:56:19.916Z,98.00
2019-05-11T22:58:49.985Z,98.40
2019-05-11T23:01:19.013Z,98.30
2019-05-11T23:03:47.784Z,98.00
2019-05-11T23:06:18.063Z,97.50
2019-05-11T23:08:48.338Z,97.40
2019-05-11T23:11:17.991Z,97.40
2019-05-11T23:13:47.951Z,97.30
2019-05-11T23:16:18.055Z,97.60
2019-05-11T23:18:48.110Z,98.20
2019-05-11T23:21:16.972Z,98.60
2019-05-11T23:23:47.689Z,98.40
2019-05-11T23:26:17.855Z,98.10
2019-05-11T23:28:48.654Z,98.20
2019-05-11T23:31:17.359Z,98.40
2019-05-11T23:33:46.212Z,98.70
2019-05-11T23:36:15.029Z,98.90
2019-05-11T23:38:43.870Z,98.90
2019-05-11T23:41:24.094Z,99.00
2019-05-11T23:43:43.141Z,99.30
2019-05-11T23:46:11.981Z,98.40
2019-05-11T23:48:40.813Z,97.70
2019-05-11T23:51:09.677Z,97.50
2019-05-11T23:53:38.877Z,97.40
2019-05-11T23:56:07.690Z,97.40
2019-05-11T23:58:38.961Z,97.20
